Time;durP1;ratioP1;P1;durP2;ratioP2;P2;SDS_P1;SDS_P2;PMS_P1;PMS_P2;Temp;Humidity;BMP_temperature;BMP_pressure;BME280_temperature;BME280_humidity;BME280_pressure;Samples;Min_cycle;Max_cycle;Signal;HPM_P1;HPM_P2
2022/10/15 00:00:00;;;;;;;261.60;108.20;;;;;;;9.12;100.00;100672.50;5133610;28;20076;-49
2022/10/15 00:02:26;;;;;;;203.95;88.32;;;;;;;9.10;100.00;100663.00;5135373;27;20034;-47
2022/10/15 00:04:51;;;;;;;172.35;79.30;;;;;;;9.11;100.00;100665.63;5136574;27;20080;-49
2022/10/15 00:07:16;;;;;;;167.35;74.30;;;;;;;9.07;100.00;100664.63;5137964;27;20484;-48
2022/10/15 00:09:41;;;;;;;164.85;76.63;;;;;;;9.12;100.00;100672.50;5137348;27;20035;-49
2022/10/15 00:12:07;;;;;;;172.13;76.82;;;;;;;9.12;100.00;100667.38;5137015;27;20454;-50
2022/10/15 00:14:32;;;;;;;146.63;71.13;;;;;;;9.01;100.00;100673.84;5137404;27;20068;-48
2022/10/15 00:16:57;;;;;;;149.82;69.80;;;;;;;9.04;100.00;100668.81;5137551;27;20023;-49
2022/10/15 00:19:22;;;;;;;152.20;71.32;;;;;;;9.16;100.00;100663.22;5136652;27;20065;-49
2022/10/15 00:21:48;;;;;;;170.82;77.20;;;;;;;9.22;100.00;100669.41;5137108;27;20035;-51
2022/10/15 00:24:13;;;;;;;202.57;86.05;;;;;;;9.33;100.00;100671.47;5137526;27;20390;-49
2022/10/15 00:26:38;;;;;;;216.65;87.13;;;;;;;9.42;100.00;100671.75;5136335;27;20050;-50
2022/10/15 00:29:04;;;;;;;241.25;95.15;;;;;;;9.56;100.00;100673.03;5137282;27;20027;-50
2022/10/15 00:31:30;;;;;;;251.65;97.03;;;;;;;9.64;100.00;100681.00;5137291;27;20084;-48
2022/10/15 00:33:58;;;;;;;274.25;105.18;;;;;;;9.78;100.00;100671.13;5136264;27;20076;-48
2022/10/15 00:36:26;;;;;;;264.05;98.25;;;;;;;9.76;100.00;100677.94;5137109;27;20412;-50
2022/10/15 00:38:51;;;;;;;;;;;;;;;9.80;100.00;100679.78;5137403;27;20023;-50
2022/10/15 00:41:20;;;;;;;274.97;101.07;;;;;;;9.99;100.00;100675.16;5136381;27;19997;-47
2022/10/15 00:43:50;;;;;;;277.25;105.90;;;;;;;10.06;100.00;100669.38;5136765;27;20038;-49
2022/10/15 00:46:15;;;;;;;287.75;107.90;;;;;;;10.14;100.00;100678.19;5136064;27;20061;-47
2022/10/15 00:48:41;;;;;;;284.37;108.13;;;;;;;10.19;100.00;100681.75;5136431;27;20083;-50
2022/10/15 00:51:07;;;;;;;284.67;105.07;;;;;;;10.24;100.00;100678.44;5136762;27;20269;-48
2022/10/15 00:53:32;;;;;;;260.20;106.65;;;;;;;10.33;100.00;100677.00;5135932;27;20485;-49
2022/10/15 00:55:58;;;;;;;269.60;106.15;;;;;;;10.37;100.00;100676.28;5137002;27;20034;-49
2022/10/15 00:58:28;;;;;;;254.23;102.35;;;;;;;10.40;100.00;100675.50;5136802;27;20072;-47
2022/10/15 01:00:54;;;;;;;241.20;100.82;;;;;;;10.46;100.00;100673.09;5135514;27;20525;-50
2022/10/15 01:03:20;;;;;;;238.00;102.97;;;;;;;10.51;100.00;100671.50;5136604;27;20102;-47
2022/10/15 01:05:49;;;;;;;244.10;100.13;;;;;;;10.53;100.00;100672.44;5136305;27;20023;-48
2022/10/15 01:08:15;;;;;;;243.18;98.22;;;;;;;10.56;100.00;100674.22;5135959;27;20115;-49
2022/10/15 01:10:53;;;;;;;235.20;97.68;;;;;;;10.59;100.00;100670.81;5136418;27;20023;-49
2022/10/15 01:13:25;;;;;;;215.40;93.88;;;;;;;10.61;100.00;100664.88;5136039;27;20111;-50
2022/10/15 01:16:03;;;;;;;207.18;91.28;;;;;;;10.64;100.00;100674.41;5135278;27;20050;-49
2022/10/15 01:18:38;;;;;;;211.15;93.68;;;;;;;10.69;100.00;100667.66;5133035;27;20098;-50
2022/10/15 01:21:15;;;;;;;196.10;91.90;;;;;;;10.74;100.00;100658.34;5136404;27;20110;-48
2022/10/15 01:23:51;;;;;;;191.82;90.85;;;;;;;10.78;100.00;100657.63;5136133;27;20019;-50
2022/10/15 01:26:31;;;;;;;188.15;91.25;;;;;;;10.78;100.00;100655.03;5136124;27;20138;-49
2022/10/15 01:29:15;;;;;;;180.32;87.60;;;;;;;10.81;100.00;100642.22;5135539;27;20102;-49
2022/10/15 01:32:01;;;;;;;171.52;86.13;;;;;;;10.86;100.00;100638.03;5135887;27;20396;-49
2022/10/15 01:35:04;;;;;;;169.85;84.70;;;;;;;10.86;100.00;100638.03;5135980;27;20023;-47
2022/10/15 01:37:50;;;;;;;154.75;83.22;;;;;;;10.89;100.00;100629.50;5103076;27;20035;-47
2022/10/15 01:40:33;;;;;;;155.00;80.25;;;;;;;10.91;100.00;100637.28;5135856;27;20488;-48
2022/10/15 01:43:01;;;;;;;150.38;80.00;;;;;;;10.92;100.00;100631.28;5135332;27;20039;-48
2022/10/15 01:45:34;;;;;;;146.90;81.40;;;;;;;10.94;100.00;100640.81;5135904;27;20042;-50
2022/10/15 01:48:05;;;;;;;145.77;79.13;;;;;;;10.96;100.00;100646.00;5135756;27;20063;-49
2022/10/15 01:50:33;;;;;;;140.25;76.82;;;;;;;10.99;100.00;100639.22;5134749;27;20023;-47
2022/10/15 01:53:01;;;;;;;134.50;75.05;;;;;;;11.00;100.00;100638.38;5135662;27;20023;-49
2022/10/15 01:55:27;;;;;;;133.05;75.72;;;;;;;11.02;100.00;100633.25;5135800;27;20024;-49
2022/10/15 01:57:55;;;;;;;130.85;74.15;;;;;;;11.02;100.00;100639.28;5134659;27;20088;-49
2022/10/15 02:00:21;;;;;;;128.93;74.43;;;;;;;11.06;100.00;100627.34;5135735;27;20049;-50
2022/10/15 02:02:46;;;;;;;124.20;74.15;;;;;;;11.09;100.00;100619.69;5135260;27;20050;-49
2022/10/15 02:05:18;;;;;;;121.70;71.15;;;;;;;11.11;100.00;100632.63;5134708;27;20522;-49
2022/10/15 02:07:59;;;;;;;120.65;71.25;;;;;;;11.11;100.00;100620.59;5135165;27;20031;-50
2022/10/15 02:10:38;;;;;;;117.40;68.88;;;;;;;11.13;100.00;100618.94;5134527;27;20443;-49
2022/10/15 02:13:13;;;;;;;120.93;69.93;;;;;;;11.14;100.00;100615.50;5135360;27;20031;-48
2022/10/15 02:16:15;;;;;;;113.70;70.07;;;;;;;11.16;100.00;100615.53;5135127;27;20028;-50
2022/10/15 02:19:04;;;;;;;114.72;67.75;;;;;;;11.17;100.00;100612.13;5134468;27;20035;-50
2022/10/15 02:21:47;;;;;;;107.93;66.97;;;;;;;11.15;100.00;100612.06;5135176;27;20026;-49
2022/10/15 02:24:14;;;;;;;116.18;69.25;;;;;;;11.17;100.00;100602.69;5134403;27;20042;-49
2022/10/15 02:26:41;;;;;;;109.20;66.63;;;;;;;11.12;100.00;100598.25;5133874;27;20027;-49
2022/10/15 02:29:11;;;;;;;110.38;68.38;;;;;;;11.12;100.00;100596.53;5135358;27;20034;-49
2022/10/15 02:31:40;;;;;;;111.05;66.93;;;;;;;11.11;100.00;100607.69;5134165;27;20031;-50
2022/10/15 02:34:10;;;;;;;107.88;66.45;;;;;;;11.08;100.00;100602.47;5134942;27;20476;-50
2022/10/15 02:36:38;;;;;;;108.45;64.43;;;;;;;11.07;100.00;100595.56;5134648;27;20023;-48
2022/10/15 02:39:04;;;;;;;110.30;66.88;;;;;;;11.08;100.00;100594.72;5133952;27;20034;-48
2022/10/15 02:41:33;;;;;;;109.55;66.80;;;;;;;11.08;100.00;100592.16;5134855;27;20028;-50
2022/10/15 02:43:59;;;;;;;121.78;68.93;;;;;;;11.09;100.00;100583.59;5134622;27;20466;-50
2022/10/15 02:46:24;;;;;;;113.50;66.35;;;;;;;11.06;100.00;100574.91;5133926;27;20148;-49
2022/10/15 02:48:49;;;;;;;109.00;67.05;;;;;;;11.11;100.00;100579.31;5134103;27;20070;-48
2022/10/15 02:51:14;;;;;;;107.15;64.85;;;;;;;11.08;100.00;100579.25;5134622;27;20105;-50
2022/10/15 02:53:40;;;;;;;113.68;66.38;;;;;;;11.09;100.00;100575.84;5133395;27;20027;-49
2022/10/15 02:56:05;;;;;;;112.82;66.85;;;;;;;11.11;100.00;100566.41;5134589;27;20027;-49
2022/10/15 02:58:30;;;;;;;120.00;68.43;;;;;;;11.11;100.00;100561.25;5134504;27;20359;-45
2022/10/15 03:00:56;;;;;;;115.03;67.82;;;;;;;11.13;100.00;100563.88;5133669;27;20488;-47
2022/10/15 03:03:21;;;;;;;115.53;66.45;;;;;;;11.12;100.00;100557.84;5134334;27;20454;-50
2022/10/15 03:05:47;;;;;;;118.57;70.93;;;;;;;11.14;100.00;100560.47;5134135;27;20101;-50
2022/10/15 03:08:12;;;;;;;117.30;71.38;;;;;;;11.15;100.00;100555.31;5133408;27;20023;-54
2022/10/15 03:10:37;;;;;;;122.65;71.13;;;;;;;11.17;100.00;100563.13;5134218;27;20390;-48
2022/10/15 03:13:04;;;;;;;124.82;70.40;;;;;;;11.16;100.00;100556.22;5134338;27;20490;-49
2022/10/15 03:15:29;;;;;;;116.75;68.85;;;;;;;11.15;100.00;100546.72;5133239;27;20386;-49
2022/10/15 03:17:54;;;;;;;128.52;70.85;;;;;;;11.14;100.00;100556.19;5133933;27;20479;-50
2022/10/15 03:20:20;;;;;;;117.03;67.18;;;;;;;11.12;100.00;100542.38;5134023;27;20047;-49
2022/10/15 03:22:45;;;;;;;118.45;67.28;;;;;;;11.12;100.00;100557.84;5133024;27;20359;-49
2022/10/15 03:25:11;;;;;;;124.72;71.93;;;;;;;11.14;100.00;100560.47;5134125;27;20023;-49
2022/10/15 03:27:36;;;;;;;127.95;71.20;;;;;;;11.11;100.00;100561.25;5133884;27;20429;-48
2022/10/15 03:30:02;;;;;;;125.47;71.05;;;;;;;11.10;100.00;100562.09;5133470;27;20027;-48
2022/10/15 03:32:28;;;;;;;123.63;70.47;;;;;;;11.10;100.00;100556.94;5134006;27;20031;-49
2022/10/15 03:34:53;;;;;;;126.95;70.78;;;;;;;11.13;100.00;100554.44;5132887;27;20030;-49
2022/10/15 03:37:18;;;;;;;124.43;71.63;;;;;;;11.16;100.00;100558.81;5133788;27;20061;-50
2022/10/15 03:39:44;;;;;;;122.95;72.55;;;;;;;11.16;100.00;100551.91;5133830;28;20064;-50
2022/10/15 03:42:09;;;;;;;130.25;73.40;;;;;;;11.20;100.00;100552.88;5133200;28;20432;-49
2022/10/15 03:44:34;;;;;;;133.18;71.35;;;;;;;11.20;100.00;100551.16;5133684;28;20406;-49
2022/10/15 03:47:00;;;;;;;126.63;67.82;;;;;;;11.22;100.00;100551.19;5133709;28;20038;-49
2022/10/15 03:49:25;;;;;;;129.57;69.97;;;;;;;11.24;100.00;100544.34;5132997;28;20043;-50
2022/10/15 03:51:50;;;;;;;131.52;67.95;;;;;;;11.26;100.00;100544.38;5133522;28;20027;-50
2022/10/15 03:54:16;;;;;;;125.00;66.55;;;;;;;11.28;100.00;100540.13;5133968;28;20023;-49
2022/10/15 03:56:41;;;;;;;122.55;66.13;;;;;;;11.27;100.00;100546.13;5132811;28;20432;-48
2022/10/15 03:59:06;;;;;;;122.95;65.38;;;;;;;11.28;100.00;100537.56;5133730;28;20023;-47
2022/10/15 04:01:31;;;;;;;119.82;64.20;;;;;;;11.26;100.00;100540.09;5133488;28;20419;-49
2022/10/15 04:03:57;;;;;;;117.68;64.28;;;;;;;11.25;100.00;100538.34;5132929;28;20452;-49
2022/10/15 04:06:22;;;;;;;127.15;62.92;;;;;;;11.26;100.00;100534.06;5133403;28;20482;-49
2022/10/15 04:08:47;;;;;;;117.88;61.25;;;;;;;11.24;100.00;100533.19;5133535;28;20030;-48
2022/10/15 04:11:13;;;;;;;120.63;62.15;;;;;;;11.25;100.00;100534.91;5132968;28;20019;-50
2022/10/15 04:13:38;;;;;;;131.85;63.58;;;;;;;11.23;100.00;100540.03;5133446;28;20027;-50
2022/10/15 04:16:04;;;;;;;121.13;60.95;;;;;;;11.22;100.00;100546.03;5133720;28;20019;-49
2022/10/15 04:18:30;;;;;;;130.40;62.70;;;;;;;11.24;100.00;100546.06;5132716;28;20018;-47
2022/10/15 04:20:58;;;;;;;131.00;62.60;;;;;;;11.24;100.00;100548.66;5133344;28;20035;-49
2022/10/15 04:23:23;;;;;;;132.75;62.05;;;;;;;11.25;100.00;100552.97;5133423;28;20098;-49
2022/10/15 04:25:48;;;;;;;130.25;64.15;;;;;;;11.26;100.00;100546.97;5132410;28;20039;-50
2022/10/15 04:28:14;;;;;;;139.07;66.00;;;;;;;11.29;100.00;100559.94;5133676;28;20119;-49
2022/10/15 04:30:39;;;;;;;151.57;68.47;;;;;;;11.34;100.00;100558.34;5133258;28;20015;-50
2022/10/15 04:33:04;;;;;;;148.68;67.50;;;;;;;11.37;100.00;100563.56;5132554;28;20086;-48
2022/10/15 04:35:30;;;;;;;149.60;68.70;;;;;;;11.39;100.00;100558.41;5133303;28;20016;-50
2022/10/15 04:37:57;;;;;;;157.95;69.38;;;;;;;11.43;100.00;100555.94;5133214;28;20019;-48
2022/10/15 04:40:23;;;;;;;150.95;70.15;;;;;;;11.46;100.00;100552.56;5132761;28;20222;-51
2022/10/15 04:42:48;;;;;;;155.05;69.78;;;;;;;11.47;100.00;100555.16;5133250;28;20122;-47
2022/10/15 04:45:13;;;;;;;161.43;68.85;;;;;;;11.48;100.00;100554.34;5132486;28;20067;-50
2022/10/15 04:47:38;;;;;;;156.60;68.13;;;;;;;11.50;100.00;100546.63;5133215;27;20062;-48
2022/10/15 04:50:04;;;;;;;157.52;68.30;;;;;;;11.52;100.00;100547.53;5136872;27;20023;-47
2022/10/15 04:52:29;;;;;;;153.45;66.25;;;;;;;11.53;100.00;100551.88;5136001;27;20019;-48
2022/10/15 04:54:55;;;;;;;156.07;66.13;;;;;;;11.55;100.00;100546.72;5136780;27;20027;-48
2022/10/15 04:57:20;;;;;;;148.93;66.38;;;;;;;11.56;100.00;100533.84;5136856;27;20509;-50
2022/10/15 04:59:45;;;;;;;144.57;63.08;;;;;;;11.58;100.00;100546.78;5135838;27;20031;-50
2022/10/15 05:02:10;;;;;;;142.60;63.40;;;;;;;11.58;100.00;100550.25;5136853;27;20373;-49
2022/10/15 05:04:36;;;;;;;133.27;62.28;;;;;;;11.60;100.00;100553.72;5136558;27;20068;-48
2022/10/15 05:07:01;;;;;;;136.68;62.35;;;;;;;11.61;100.00;100542.56;5136030;27;20031;-50
2022/10/15 05:09:27;;;;;;;133.10;59.83;;;;;;;11.62;100.00;100539.13;5136655;27;20390;-49
2022/10/15 05:11:54;;;;;;;124.45;57.20;;;;;;;11.63;100.00;100540.00;5136183;27;20024;-49
2022/10/15 05:14:19;;;;;;;116.97;56.53;;;;;;;11.64;100.00;100542.59;5135904;27;20030;-49
2022/10/15 05:16:45;;;;;;;119.53;56.50;;;;;;;11.65;100.00;100549.53;5136216;27;20386;-48
2022/10/15 05:19:11;;;;;;;114.07;55.53;;;;;;;11.67;100.00;100547.84;5136293;27;20494;-50
2022/10/15 05:21:37;;;;;;;116.32;56.53;;;;;;;11.68;100.00;100553.88;5135193;27;20026;-50
2022/10/15 05:24:04;;;;;;;113.13;55.78;;;;;;;11.69;100.00;100551.31;5136356;27;20023;-50
2022/10/15 05:26:31;;;;;;;111.25;55.60;;;;;;;11.70;100.00;100559.94;5136179;27;20027;-49
2022/10/15 05:28:57;;;;;;;120.50;58.50;;;;;;;11.70;100.00;100552.19;5135354;27;20385;-51
2022/10/15 05:31:25;;;;;;;97.60;50.23;;;;;;;11.69;100.00;100553.03;5136319;27;20027;-51
2022/10/15 05:33:52;;;;;;;96.45;51.75;;;;;;;11.69;100.00;100550.47;5135908;27;20035;-49
2022/10/15 05:36:23;;;;;;;102.40;51.10;;;;;;;11.70;100.00;100552.19;5135168;27;20019;-49
2022/10/15 05:39:09;;;;;;;93.40;49.42;;;;;;;11.69;100.00;100551.31;5135936;27;20019;-50
2022/10/15 05:41:35;;;;;;;92.03;49.42;;;;;;;11.69;100.00;100558.19;5135027;27;20038;-50
2022/10/15 05:44:00;;;;;;;92.30;49.40;;;;;;;11.70;100.00;100554.78;5135940;27;20458;-48
2022/10/15 05:46:26;;;;;;;85.75;47.65;;;;;;;11.69;100.00;100550.47;5135662;27;20086;-49
2022/10/15 05:48:56;;;;;;;88.22;48.80;;;;;;;11.69;100.00;100550.47;5134748;27;20047;-48
2022/10/15 05:51:25;;;;;;;86.70;48.20;;;;;;;11.68;100.00;100548.72;5135806;27;20067;-48
2022/10/15 05:53:51;;;;;;;89.90;48.35;;;;;;;11.67;100.00;100547.84;5135487;27;20816;-50
2022/10/15 05:56:16;;;;;;;95.18;48.83;;;;;;;11.67;100.00;100537.53;5134967;27;20050;-48
2022/10/15 05:58:42;;;;;;;92.68;50.00;;;;;;;11.67;100.00;100547.84;5134948;27;20103;-48
2022/10/15 06:01:10;;;;;;;95.97;50.10;;;;;;;11.67;100.00;100546.97;5134563;27;20035;-50
2022/10/15 06:03:36;;;;;;;93.32;48.30;;;;;;;11.67;100.00;100552.13;5134635;27;20019;-50
2022/10/15 06:06:01;;;;;;;92.55;50.78;;;;;;;11.67;100.00;100554.69;5135301;27;20082;-49
2022/10/15 06:08:28;;;;;;;93.65;48.40;;;;;;;11.67;100.00;100552.13;5135484;27;20016;-49
2022/10/15 06:10:55;;;;;;;94.60;48.90;;;;;;;11.68;100.00;100548.72;5134194;27;20378;-49
2022/10/15 06:13:20;;;;;;;99.63;50.28;;;;;;;11.68;100.00;100552.19;5135136;27;20015;-47
2022/10/15 06:15:46;;;;;;;92.32;49.55;;;;;;;11.68;100.00;100553.88;5134865;27;20023;-51
2022/10/15 06:18:14;;;;;;;85.72;47.35;;;;;;;11.68;100.00;100551.28;5134383;27;20497;-50
2022/10/15 06:20:40;;;;;;;93.03;48.53;;;;;;;11.68;100.00;100543.53;5135098;27;20094;-50
2022/10/15 06:23:05;;;;;;;92.88;47.78;;;;;;;11.69;100.00;100545.28;5135152;27;20462;-48
2022/10/15 06:25:32;;;;;;;94.10;49.15;;;;;;;11.71;100.00;100548.78;5134175;27;20473;-48
2022/10/15 06:28:02;;;;;;;96.03;49.70;;;;;;;11.72;100.00;100557.41;5135052;27;20058;-49
2022/10/15 06:30:28;;;;;;;97.53;50.40;;;;;;;11.73;100.00;100541.06;5135059;27;20114;-50
2022/10/15 06:32:54;;;;;;;96.90;49.55;;;;;;;11.75;100.00;100550.59;5133806;27;20164;-50
2022/10/15 06:35:21;;;;;;;95.05;50.47;;;;;;;11.77;100.00;100556.63;5134914;27;20016;-48
2022/10/15 06:37:47;;;;;;;98.85;51.85;;;;;;;11.77;100.00;100548.88;5133782;27;20023;-46
2022/10/15 06:40:13;;;;;;;98.35;51.70;;;;;;;11.78;100.00;100549.78;5134713;27;20026;-48
2022/10/15 06:42:39;;;;;;;102.65;53.40;;;;;;;11.79;100.00;100548.94;5134764;27;20015;-49
2022/10/15 06:45:05;;;;;;;107.45;53.95;;;;;;;11.79;100.00;100547.22;5134092;27;20076;-49
2022/10/15 06:47:31;;;;;;;109.53;56.65;;;;;;;11.77;100.00;100548.03;5134393;27;20068;-49
2022/10/15 06:49:56;;;;;;;114.32;56.55;;;;;;;11.78;100.00;100548.06;5134694;27;20016;-49
2022/10/15 06:52:22;;;;;;;112.40;56.33;;;;;;;11.77;100.00;100543.72;5133831;27;20356;-49
2022/10/15 06:54:48;;;;;;;114.22;57.70;;;;;;;11.76;100.00;100543.69;5134306;27;20057;-50
2022/10/15 06:57:13;;;;;;;111.30;58.75;;;;;;;11.75;100.00;100549.69;5134372;27;20055;-49
2022/10/15 06:59:38;;;;;;;117.55;58.00;;;;;;;11.75;100.00;100542.84;5133358;27;20163;-47
2022/10/15 07:02:03;;;;;;;124.18;60.05;;;;;;;11.73;100.00;100557.41;5134461;27;20466;-47
2022/10/15 07:04:29;;;;;;;114.38;58.67;;;;;;;11.75;100.00;100555.75;5134295;27;20019;-49
2022/10/15 07:06:54;;;;;;;108.50;57.28;;;;;;;11.75;100.00;100548.00;5133138;27;20023;-49
2022/10/15 07:09:19;;;;;;;111.43;56.83;;;;;;;11.75;100.00;100553.16;5134319;27;20079;-49
2022/10/15 07:11:45;;;;;;;102.15;52.85;;;;;;;11.75;100.00;100547.13;5133722;27;20041;-50
2022/10/15 07:14:10;;;;;;;107.60;54.95;;;;;;;11.78;100.00;100548.06;5133362;27;20015;-50
2022/10/15 07:16:37;;;;;;;93.00;51.35;;;;;;;11.79;100.00;100554.09;5134132;27;20027;-50
2022/10/15 07:19:02;;;;;;;88.90;50.50;;;;;;;11.76;100.00;100549.75;5134344;27;20023;-48
2022/10/15 07:21:28;;;;;;;88.57;47.85;;;;;;;11.73;100.00;100557.41;5133287;27;20090;-50
2022/10/15 07:23:53;;;;;;;88.78;48.42;;;;;;;11.73;100.00;100557.41;5133835;27;20027;-51
2022/10/15 07:26:18;;;;;;;96.00;49.30;;;;;;;11.78;100.00;100552.34;5133848;27;20023;-49
2022/10/15 07:28:43;;;;;;;92.55;48.80;;;;;;;11.83;100.00;100551.59;5133179;27;20075;-50
2022/10/15 07:31:09;;;;;;;89.30;47.35;;;;;;;11.88;100.00;100535.31;5134202;27;20383;-49
2022/10/15 07:33:34;;;;;;;94.45;48.20;;;;;;;11.97;100.00;100540.72;5133654;27;20071;-50
2022/10/15 07:36:06;;;;;;;93.93;47.72;;;;;;;12.08;100.00;100526.25;5133242;27;20023;-49
2022/10/15 07:38:33;;;;;;;89.13;47.40;;;;;;;12.27;100.00;100529.19;5133597;28;20530;-50
2022/10/15 07:40:59;;;;;;;77.57;42.50;;;;;;;12.30;100.00;100526.66;5132994;28;20030;-51
2022/10/15 07:43:24;;;;;;;69.32;40.40;;;;;;;12.30;100.00;100516.31;5133796;28;20482;-50
2022/10/15 07:45:50;;;;;;;67.40;40.88;;;;;;;12.28;100.00;100521.47;5133588;28;20047;-50
2022/10/15 07:48:15;;;;;;;65.45;38.75;;;;;;;12.27;100.00;100526.59;5132869;28;20050;-50
2022/10/15 07:50:41;;;;;;;70.18;40.60;;;;;;;12.24;100.00;100523.94;5133628;28;20032;-47
2022/10/15 07:53:06;;;;;;;71.13;40.10;;;;;;;12.23;100.00;100530.00;5133672;28;20484;-49
2022/10/15 07:55:31;;;;;;;75.90;41.10;;;;;;;12.33;100.00;100526.69;5132664;28;20484;-49
2022/10/15 07:57:57;;;;;;;70.35;40.22;;;;;;;12.45;100.00;100518.31;5133644;28;20441;-47
2022/10/15 08:00:22;;;;;;;67.43;37.25;;;;;;;12.57;100.00;100509.88;5133603;28;20023;-50
2022/10/15 08:02:48;;;;;;;57.97;34.65;;;;;;;12.60;100.00;100512.50;5132622;28;20103;-48
2022/10/15 08:05:13;;;;;;;51.83;33.13;;;;;;;12.57;100.00;100507.28;5133598;28;20106;-49
2022/10/15 08:07:40;;;;;;;63.88;35.63;;;;;;;12.59;100.00;100505.56;5133428;28;20096;-47
2022/10/15 08:10:06;;;;;;;55.63;32.50;;;;;;;12.61;100.00;100514.25;5132802;28;20094;-49
2022/10/15 08:12:32;;;;;;;51.80;32.67;;;;;;;12.60;100.00;100513.38;5133168;28;20481;-48
2022/10/15 08:14:57;;;;;;;54.25;32.88;;;;;;;12.63;100.00;100507.38;5133727;28;20011;-49
2022/10/15 08:17:22;;;;;;;57.80;34.20;;;;;;;12.77;100.00;100503.28;5132776;28;20023;-49
2022/10/15 08:19:47;;;;;;;52.75;31.70;;;;;;;12.85;100.00;100491.34;5133295;28;20023;-48
2022/10/15 08:22:13;;;;;;;57.25;32.42;;;;;;;12.95;100.00;100496.63;5133555;27;20075;-50
2022/10/15 08:24:41;;;;;;;49.83;31.30;;;;;;;13.16;100.00;100504.69;5136005;27;20039;-48
2022/10/15 08:27:06;;;;;;;44.75;26.75;;;;;;;13.18;100.00;100500.41;5137525;27;20023;-51
2022/10/15 08:29:31;;;;;;;40.70;25.98;;;;;;;13.29;100.00;100503.13;5137306;27;20030;-48
2022/10/15 08:31:56;;;;;;;39.30;24.67;;;;;;;13.33;100.00;100501.47;5136620;27;20055;-49
2022/10/15 08:34:22;;;;;;;40.05;24.58;;;;;;;13.31;100.00;100501.44;5137301;27;20022;-50
2022/10/15 08:36:47;;;;;;;33.20;22.23;;;;;;;13.31;100.00;100503.16;5137042;27;20027;-46
2022/10/15 08:39:12;;;;;;;36.80;21.77;;;;;;;13.32;100.00;100499.72;5136299;27;20026;-50
2022/10/15 08:41:46;;;;;;;34.05;19.85;;;;;;;13.35;100.00;100497.19;5136881;27;20466;-49
2022/10/15 08:44:25;;;;;;;29.83;20.00;;;;;;;13.53;100.00;100487.91;5137159;27;20043;-49
2022/10/15 08:47:29;;;;;;;29.08;18.77;;;;;;;13.52;100.00;100488.78;5136812;27;20034;-49
2022/10/15 08:50:01;;;;;;;28.63;16.17;;;;;;;13.50;100.00;100484.47;5136872;27;20063;-50
2022/10/15 08:52:45;;;;;;;24.35;15.90;;;;;;;13.57;100.00;100482.81;5136237;27;20076;-48
2022/10/15 08:55:13;;;;;;;26.48;15.80;;;;;;;13.55;100.00;100483.66;5136849;27;20485;-49
2022/10/15 08:57:47;;;;;;;;;;;;;;;13.65;100.00;100477.72;5137034;27;20023;-51
2022/10/15 09:00:24;;;;;;;21.50;14.13;;;;;;;13.61;100.00;100475.94;5135809;27;19915;-50
2022/10/15 09:03:00;;;;;;;21.88;13.88;;;;;;;13.65;100.00;100475.13;5136666;27;20076;-50
2022/10/15 09:05:47;;;;;;;19.67;13.30;;;;;;;13.70;100.00;100460.50;5135872;27;20025;-49
2022/10/15 09:08:42;;;;;;;25.13;15.27;;;;;;;13.79;100.00;100460.59;5136676;27;20105;-50
2022/10/15 09:11:17;;;;;;;22.73;13.52;;;;;;;13.86;100.00;100456.34;5045575;27;20034;-49
2022/10/15 09:13:45;;;;;;;19.52;13.75;;;;;;;13.86;100.00;100451.16;5135720;27;20023;-49
2022/10/15 09:16:18;;;;;;;21.13;13.32;;;;;;;13.95;100.00;100445.19;5136835;27;20023;-49
2022/10/15 09:18:48;;;;;;;18.92;12.85;;;;;;;14.00;100.00;100453.88;5136170;27;20065;-49
2022/10/15 09:21:14;;;;;;;22.33;13.43;;;;;;;14.04;100.00;100447.88;5135788;27;20023;-47
2022/10/15 09:23:42;;;;;;;22.27;14.18;;;;;;;13.95;100.00;100445.19;5136006;27;20454;-50
2022/10/15 09:26:10;;;;;;;22.60;13.82;;;;;;;13.86;100.00;100451.16;5136164;27;20378;-48
2022/10/15 09:28:47;;;;;;;21.67;14.38;;;;;;;13.82;100.00;100450.25;5135208;27;20026;-49
2022/10/15 09:31:18;;;;;;;22.42;14.50;;;;;;;13.81;100.00;100448.53;5136100;27;20035;-49
2022/10/15 09:33:53;;;;;;;25.15;15.70;;;;;;;13.78;100.00;100452.81;5134705;27;20054;-49
2022/10/15 09:36:33;;;;;;;24.30;15.52;;;;;;;13.76;100.00;100452.81;5136193;27;20015;-51
2022/10/15 09:39:17;;;;;;;25.88;15.90;;;;;;;13.73;100.00;100439.81;5136180;27;20026;-47
2022/10/15 09:41:52;;;;;;;25.77;16.50;;;;;;;13.68;100.00;100438.03;5135067;27;20363;-50
2022/10/15 09:44:20;;;;;;;28.95;17.05;;;;;;;13.65;100.00;100442.31;5136095;27;20024;-48
2022/10/15 09:46:48;;;;;;;28.08;16.13;;;;;;;13.67;100.00;100434.56;5135682;27;20031;-50
2022/10/15 09:49:23;;;;;;;;;;;;;;;13.79;100.00;100434.69;5135301;27;20043;-48
2022/10/15 09:52:04;;;;;;;31.80;17.48;;;;;;;13.65;100.00;100433.69;5135624;27;19918;-50
2022/10/15 09:54:44;;;;;;;26.85;16.35;;;;;;;13.60;100.00;100432.78;5135616;27;20026;-50
2022/10/15 09:57:11;;;;;;;28.80;16.25;;;;;;;13.57;100.00;100427.56;5135954;27;20111;-49
2022/10/15 09:59:37;;;;;;;25.55;15.13;;;;;;;13.53;100.00;100430.97;5135467;27;20047;-51
2022/10/15 10:02:17;;;;;;;25.50;15.63;;;;;;;13.48;100.00;100424.03;5134940;27;20070;-50
2022/10/15 10:04:42;;;;;;;26.33;16.15;;;;;;;13.53;100.00;100423.19;5135653;27;20015;-49
2022/10/15 10:07:27;;;;;;;28.38;17.15;;;;;;;13.56;100.00;100420.66;5135240;27;20034;-49
2022/10/15 10:09:55;;;;;;;27.10;15.95;;;;;;;13.59;100.00;100418.09;5134472;27;20042;-50
2022/10/15 10:12:32;;;;;;;25.85;15.20;;;;;;;13.59;100.00;100415.50;5135222;27;20382;-50
2022/10/15 10:15:02;;;;;;;25.58;15.55;;;;;;;13.61;100.00;100417.25;5135350;27;20024;-49
2022/10/15 10:17:29;;;;;;;25.25;14.27;;;;;;;13.63;100.00;100414.66;5134479;27;20035;-50
2022/10/15 10:20:14;;;;;;;26.88;14.40;;;;;;;13.70;100.00;100403.53;5135029;27;20019;-49
2022/10/15 10:22:46;;;;;;;24.55;13.95;;;;;;;13.77;100.00;100415.66;5135053;27;20023;-48
2022/10/15 10:25:28;;;;;;;22.73;13.70;;;;;;;13.79;100.00;100416.56;5135082;27;20030;-49
2022/10/15 10:27:56;;;;;;;20.13;12.57;;;;;;;13.80;100.00;100417.41;5134882;27;20064;-44
2022/10/15 10:30:22;;;;;;;;;;;;;;;13.89;100.00;100414.94;5134484;27;20415;-48
2022/10/15 10:32:48;;;;;;;19.92;11.55;;;;;;;13.88;100.00;100413.19;5134907;27;19967;-49
2022/10/15 10:35:23;;;;;;;19.67;11.18;;;;;;;13.94;100.00;100417.56;5134988;27;20050;-49
2022/10/15 10:37:49;;;;;;;15.68;10.30;;;;;;;13.96;100.00;100415.84;5133932;27;20068;-49
2022/10/15 10:40:35;;;;;;;18.58;10.27;;;;;;;14.03;100.00;100421.94;5134737;27;20023;-49
2022/10/15 10:43:15;;;;;;;13.35;8.90;;;;;;;14.05;100.00;100420.25;5134310;27;20162;-49
2022/10/15 10:45:55;;;;;;;13.00;8.40;;;;;;;14.10;100.00;100424.59;5133007;27;20107;-50
2022/10/15 10:48:26;;;;;;;9.68;6.85;;;;;;;14.13;100.00;100423.75;5134445;27;20159;-50
2022/10/15 10:51:04;;;;;;;12.38;5.43;;;;;;;14.20;100.00;100419.50;5133624;27;20023;-48
2022/10/15 10:53:30;;;;;;;10.00;5.32;;;;;;;14.27;100.00;100416.97;5134636;27;20027;-49
2022/10/15 10:55:57;;;;;;;6.70;4.60;;;;;;;14.32;100.00;100410.09;5134738;27;20023;-48
2022/10/15 10:58:23;;;;;;;8.27;5.03;;;;;;;14.40;100.00;100417.91;5133841;27;20027;-48
2022/10/15 11:00:51;;;;;;;8.23;4.78;;;;;;;14.44;100.00;100414.47;5134104;27;20277;-49
2022/10/15 11:03:25;;;;;;;;;;;;;;;14.52;100.00;100405.91;5134814;27;20474;-49
2022/10/15 11:06:00;;;;;;;10.82;5.25;;;;;;;14.46;100.00;100398.94;5133423;27;19920;-49